sensor_id;sensor_type;location;lat;lon;timestamp;temperature;humidity
17954;DHT22;9102;53.548;9.926;2023-10-19T00:01:54;8.50;99.90
17954;DHT22;9102;53.548;9.926;2023-10-19T00:04:23;8.50;99.90
17954;DHT22;9102;53.548;9.926;2023-10-19T00:06:49;8.60;99.90
17954;DHT22;9102;53.548;9.926;2023-10-19T00:09:16;8.50;99.90
17954;DHT22;9102;53.548;9.926;2023-10-19T00:11:44;8.50;99.90
17954;DHT22;9102;53.548;9.926;2023-10-19T00:14:12;8.50;99.90
17954;DHT22;9102;53.548;9.926;2023-10-19T00:16:42;8.50;99.90
17954;DHT22;9102;53.548;9.926;2023-10-19T00:19:12;8.60;99.90
17954;DHT22;9102;53.548;9.926;2023-10-19T00:21:44;8.50;99.90
17954;DHT22;9102;53.548;9.926;2023-10-19T00:24:17;8.60;99.90
17954;DHT22;9102;53.548;9.926;2023-10-19T00:26:46;8.50;99.90
17954;DHT22;9102;53.548;9.926;2023-10-19T00:29:13;8.50;99.90
17954;DHT22;9102;53.548;9.926;2023-10-19T00:31:56;8.60;99.90
17954;DHT22;9102;53.548;9.926;2023-10-19T00:34:25;8.60;99.90
17954;DHT22;9102;53.548;9.926;2023-10-19T00:36:52;8.60;99.90
17954;DHT22;9102;53.548;9.926;2023-10-19T00:39:21;8.60;99.90
17954;DHT22;9102;53.548;9.926;2023-10-19T00:41:50;8.60;99.90
17954;DHT22;9102;53.548;9.926;2023-10-19T00:44:22;8.70;99.90
17954;DHT22;9102;53.548;9.926;2023-10-19T00:47:01;8.70;99.90
17954;DHT22;9102;53.548;9.926;2023-10-19T00:49:30;8.70;99.90
17954;DHT22;9102;53.548;9.926;2023-10-19T00:51:58;8.70;99.90
17954;DHT22;9102;53.548;9.926;2023-10-19T00:54:38;8.60;99.90
17954;DHT22;9102;53.548;9.926;2023-10-19T00:57:08;8.70;99.90
17954;DHT22;9102;53.548;9.926;2023-10-19T00:59:36;8.70;99.90
17954;DHT22;9102;53.548;9.926;2023-10-19T01:02:08;8.70;99.90
17954;DHT22;9102;53.548;9.926;2023-10-19T01:04:46;8.70;99.90
17954;DHT22;9102;53.548;9.926;2023-10-19T01:07:16;8.70;99.90
17954;DHT22;9102;53.548;9.926;2023-10-19T01:09:48;8.70;99.90
17954;DHT22;9102;53.548;9.926;2023-10-19T01:12:19;8.70;99.90
17954;DHT22;9102;53.548;9.926;2023-10-19T01:15:05;8.70;99.90
17954;DHT22;9102;53.548;9.926;2023-10-19T01:17:33;8.70;99.90
17954;DHT22;9102;53.548;9.926;2023-10-19T01:20:06;8.70;99.90
17954;DHT22;9102;53.548;9.926;2023-10-19T01:22:51;8.60;99.90
17954;DHT22;9102;53.548;9.926;2023-10-19T01:25:32;8.70;99.90
17954;DHT22;9102;53.548;9.926;2023-10-19T01:28:06;8.70;99.90
17954;DHT22;9102;53.548;9.926;2023-10-19T01:30:33;8.60;99.90
17954;DHT22;9102;53.548;9.926;2023-10-19T01:33:01;8.70;99.90
17954;DHT22;9102;53.548;9.926;2023-10-19T01:35:29;8.60;99.90
17954;DHT22;9102;53.548;9.926;2023-10-19T01:38:17;8.70;99.90
17954;DHT22;9102;53.548;9.926;2023-10-19T01:40:43;8.70;99.90
17954;DHT22;9102;53.548;9.926;2023-10-19T01:43:14;8.70;99.90
17954;DHT22;9102;53.548;9.926;2023-10-19T01:45:46;8.70;99.90
17954;DHT22;9102;53.548;9.926;2023-10-19T01:48:13;8.70;99.90
17954;DHT22;9102;53.548;9.926;2023-10-19T01:50:39;8.70;99.90
17954;DHT22;9102;53.548;9.926;2023-10-19T01:53:07;8.70;99.90
17954;DHT22;9102;53.548;9.926;2023-10-19T01:55:42;8.60;99.90
17954;DHT22;9102;53.548;9.926;2023-10-19T01:58:09;8.60;99.90
17954;DHT22;9102;53.548;9.926;2023-10-19T02:00:35;8.60;99.90
17954;DHT22;9102;53.548;9.926;2023-10-19T02:03:06;8.60;99.90
17954;DHT22;9102;53.548;9.926;2023-10-19T02:05:33;8.60;99.90
17954;DHT22;9102;53.548;9.926;2023-10-19T02:08:05;8.60;99.90
17954;DHT22;9102;53.548;9.926;2023-10-19T02:10:33;8.70;99.90
17954;DHT22;9102;53.548;9.926;2023-10-19T02:13:01;8.60;99.90
17954;DHT22;9102;53.548;9.926;2023-10-19T02:15:32;8.60;99.90
17954;DHT22;9102;53.548;9.926;2023-10-19T02:18:01;8.50;99.90
17954;DHT22;9102;53.548;9.926;2023-10-19T02:20:28;8.60;99.90
17954;DHT22;9102;53.548;9.926;2023-10-19T02:22:55;8.60;99.90
17954;DHT22;9102;53.548;9.926;2023-10-19T02:25:23;8.60;99.90
17954;DHT22;9102;53.548;9.926;2023-10-19T02:27:53;8.60;99.90
17954;DHT22;9102;53.548;9.926;2023-10-19T02:30:21;8.70;99.90
17954;DHT22;9102;53.548;9.926;2023-10-19T02:32:50;8.60;99.90
17954;DHT22;9102;53.548;9.926;2023-10-19T02:35:16;8.60;99.90
17954;DHT22;9102;53.548;9.926;2023-10-19T02:37:44;8.50;99.90
17954;DHT22;9102;53.548;9.926;2023-10-19T02:40:11;8.60;99.90
17954;DHT22;9102;53.548;9.926;2023-10-19T02:42:45;8.60;99.90
17954;DHT22;9102;53.548;9.926;2023-10-19T02:45:13;8.60;99.90
17954;DHT22;9102;53.548;9.926;2023-10-19T02:47:44;8.60;99.90
17954;DHT22;9102;53.548;9.926;2023-10-19T02:50:10;8.60;99.90
17954;DHT22;9102;53.548;9.926;2023-10-19T02:52:40;8.60;99.90
17954;DHT22;9102;53.548;9.926;2023-10-19T02:55:08;8.50;99.90
17954;DHT22;9102;53.548;9.926;2023-10-19T02:57:36;8.50;99.90
17954;DHT22;9102;53.548;9.926;2023-10-19T03:00:03;8.50;99.90
17954;DHT22;9102;53.548;9.926;2023-10-19T03:02:34;8.60;99.90
17954;DHT22;9102;53.548;9.926;2023-10-19T03:05:04;8.50;99.90
17954;DHT22;9102;53.548;9.926;2023-10-19T03:07:39;8.60;99.90
17954;DHT22;9102;53.548;9.926;2023-10-19T03:10:06;8.50;99.90
17954;DHT22;9102;53.548;9.926;2023-10-19T03:12:33;8.50;99.90
17954;DHT22;9102;53.548;9.926;2023-10-19T03:14:59;8.50;99.90
17954;DHT22;9102;53.548;9.926;2023-10-19T03:17:27;8.50;99.90
17954;DHT22;9102;53.548;9.926;2023-10-19T03:19:55;8.50;99.90
17954;DHT22;9102;53.548;9.926;2023-10-19T03:22:24;8.40;99.90
17954;DHT22;9102;53.548;9.926;2023-10-19T03:24:50;8.30;99.90
17954;DHT22;9102;53.548;9.926;2023-10-19T03:27:25;8.20;99.90
17954;DHT22;9102;53.548;9.926;2023-10-19T03:29:52;8.10;99.90
17954;DHT22;9102;53.548;9.926;2023-10-19T03:32:20;8.00;99.90
17954;DHT22;9102;53.548;9.926;2023-10-19T03:34:52;7.80;99.90
17954;DHT22;9102;53.548;9.926;2023-10-19T03:37:21;7.60;99.90
17954;DHT22;9102;53.548;9.926;2023-10-19T03:39:57;7.40;99.90
17954;DHT22;9102;53.548;9.926;2023-10-19T03:42:25;7.20;99.90
17954;DHT22;9102;53.548;9.926;2023-10-19T03:44:52;7.20;99.90
17954;DHT22;9102;53.548;9.926;2023-10-19T03:47:20;7.30;99.90
17954;DHT22;9102;53.548;9.926;2023-10-19T03:49:51;7.20;99.90
17954;DHT22;9102;53.548;9.926;2023-10-19T03:52:18;7.10;99.90
17954;DHT22;9102;53.548;9.926;2023-10-19T03:54:48;7.10;99.90
17954;DHT22;9102;53.548;9.926;2023-10-19T03:57:18;7.10;99.90
17954;DHT22;9102;53.548;9.926;2023-10-19T03:59:51;7.10;99.90
17954;DHT22;9102;53.548;9.926;2023-10-19T04:02:22;7.00;99.90
17954;DHT22;9102;53.548;9.926;2023-10-19T04:04:50;7.10;99.90
17954;DHT22;9102;53.548;9.926;2023-10-19T04:07:18;7.10;99.90
17954;DHT22;9102;53.548;9.926;2023-10-19T04:09:47;7.10;99.90
17954;DHT22;9102;53.548;9.926;2023-10-19T04:12:27;7.10;99.90
17954;DHT22;9102;53.548;9.926;2023-10-19T04:14:56;7.00;99.90
17954;DHT22;9102;53.548;9.926;2023-10-19T04:17:23;7.00;99.90
17954;DHT22;9102;53.548;9.926;2023-10-19T04:19:51;7.10;99.90
17954;DHT22;9102;53.548;9.926;2023-10-19T04:22:20;7.00;99.90
17954;DHT22;9102;53.548;9.926;2023-10-19T04:24:50;7.00;99.90
17954;DHT22;9102;53.548;9.926;2023-10-19T04:27:17;7.00;99.90
17954;DHT22;9102;53.548;9.926;2023-10-19T04:29:48;7.00;99.90
17954;DHT22;9102;53.548;9.926;2023-10-19T04:32:15;7.20;99.90
17954;DHT22;9102;53.548;9.926;2023-10-19T04:34:51;7.00;99.90
17954;DHT22;9102;53.548;9.926;2023-10-19T04:37:18;7.00;99.90
17954;DHT22;9102;53.548;9.926;2023-10-19T04:39:45;7.00;99.90
17954;DHT22;9102;53.548;9.926;2023-10-19T04:42:12;7.00;99.90
17954;DHT22;9102;53.548;9.926;2023-10-19T04:44:40;6.90;99.90
17954;DHT22;9102;53.548;9.926;2023-10-19T04:47:08;7.00;99.90
17954;DHT22;9102;53.548;9.926;2023-10-19T04:49:35;7.00;99.90
17954;DHT22;9102;53.548;9.926;2023-10-19T04:52:03;7.00;99.90
17954;DHT22;9102;53.548;9.926;2023-10-19T04:54:30;7.00;99.90
17954;DHT22;9102;53.548;9.926;2023-10-19T04:56:56;6.90;99.90
17954;DHT22;9102;53.548;9.926;2023-10-19T04:59:25;6.90;99.90
17954;DHT22;9102;53.548;9.926;2023-10-19T05:01:52;6.90;99.90
17954;DHT22;9102;53.548;9.926;2023-10-19T05:04:22;6.90;99.90
17954;DHT22;9102;53.548;9.926;2023-10-19T05:06:49;6.90;99.90
17954;DHT22;9102;53.548;9.926;2023-10-19T05:09:16;6.90;99.90
17954;DHT22;9102;53.548;9.926;2023-10-19T05:11:43;6.90;99.90
17954;DHT22;9102;53.548;9.926;2023-10-19T05:14:11;6.90;99.90
17954;DHT22;9102;53.548;9.926;2023-10-19T05:16:39;6.90;99.90
17954;DHT22;9102;53.548;9.926;2023-10-19T05:19:06;7.00;99.90
17954;DHT22;9102;53.548;9.926;2023-10-19T05:21:34;6.90;99.90
17954;DHT22;9102;53.548;9.926;2023-10-19T05:24:01;6.90;99.90
17954;DHT22;9102;53.548;9.926;2023-10-19T05:26:28;6.90;99.90
17954;DHT22;9102;53.548;9.926;2023-10-19T05:28:56;6.80;99.90
17954;DHT22;9102;53.548;9.926;2023-10-19T05:31:22;6.80;99.90
17954;DHT22;9102;53.548;9.926;2023-10-19T05:33:50;6.80;99.90
17954;DHT22;9102;53.548;9.926;2023-10-19T05:36:18;6.90;99.90
17954;DHT22;9102;53.548;9.926;2023-10-19T05:38:46;6.90;99.90
17954;DHT22;9102;53.548;9.926;2023-10-19T05:41:13;6.90;99.90
17954;DHT22;9102;53.548;9.926;2023-10-19T05:43:40;6.80;99.90
17954;DHT22;9102;53.548;9.926;2023-10-19T05:46:07;6.80;99.90
17954;DHT22;9102;53.548;9.926;2023-10-19T05:48:33;6.90;99.90
17954;DHT22;9102;53.548;9.926;2023-10-19T05:51:00;6.80;99.90
17954;DHT22;9102;53.548;9.926;2023-10-19T05:53:28;6.80;99.90
17954;DHT22;9102;53.548;9.926;2023-10-19T05:55:57;6.80;99.90
17954;DHT22;9102;53.548;9.926;2023-10-19T05:58:23;6.80;99.90
17954;DHT22;9102;53.548;9.926;2023-10-19T06:00:50;6.90;99.90
17954;DHT22;9102;53.548;9.926;2023-10-19T06:03:17;7.00;99.90
17954;DHT22;9102;53.548;9.926;2023-10-19T06:05:44;6.90;99.90
17954;DHT22;9102;53.548;9.926;2023-10-19T06:08:11;6.90;99.90
17954;DHT22;9102;53.548;9.926;2023-10-19T06:10:39;6.90;99.90
17954;DHT22;9102;53.548;9.926;2023-10-19T06:13:09;6.90;99.90
17954;DHT22;9102;53.548;9.926;2023-10-19T06:15:36;6.80;99.90
17954;DHT22;9102;53.548;9.926;2023-10-19T06:18:04;6.80;99.90
17954;DHT22;9102;53.548;9.926;2023-10-19T06:20:31;6.80;99.90
17954;DHT22;9102;53.548;9.926;2023-10-19T06:22:59;6.80;99.90
17954;DHT22;9102;53.548;9.926;2023-10-19T06:25:30;6.80;99.90
17954;DHT22;9102;53.548;9.926;2023-10-19T06:27:57;6.90;99.90
17954;DHT22;9102;53.548;9.926;2023-10-19T06:30:26;7.00;99.90
17954;DHT22;9102;53.548;9.926;2023-10-19T06:32:55;7.00;99.90
17954;DHT22;9102;53.548;9.926;2023-10-19T06:35:22;7.00;99.90
17954;DHT22;9102;53.548;9.926;2023-10-19T06:37:49;6.90;99.90
17954;DHT22;9102;53.548;9.926;2023-10-19T06:40:17;6.90;99.90
17954;DHT22;9102;53.548;9.926;2023-10-19T06:42:44;6.90;99.90
17954;DHT22;9102;53.548;9.926;2023-10-19T06:45:12;6.90;99.90
17954;DHT22;9102;53.548;9.926;2023-10-19T06:47:45;7.00;99.90
17954;DHT22;9102;53.548;9.926;2023-10-19T06:50:13;6.90;99.90
17954;DHT22;9102;53.548;9.926;2023-10-19T06:52:42;6.90;99.90
17954;DHT22;9102;53.548;9.926;2023-10-19T06:55:10;7.00;99.90
17954;DHT22;9102;53.548;9.926;2023-10-19T06:57:40;7.00;99.90
17954;DHT22;9102;53.548;9.926;2023-10-19T07:00:10;6.90;99.90
17954;DHT22;9102;53.548;9.926;2023-10-19T07:02:41;7.00;99.90
17954;DHT22;9102;53.548;9.926;2023-10-19T07:05:09;6.90;99.90
17954;DHT22;9102;53.548;9.926;2023-10-19T07:07:38;6.90;99.90
17954;DHT22;9102;53.548;9.926;2023-10-19T07:10:06;7.00;99.90
17954;DHT22;9102;53.548;9.926;2023-10-19T07:12:34;7.00;99.90
17954;DHT22;9102;53.548;9.926;2023-10-19T07:15:00;7.00;99.90
17954;DHT22;9102;53.548;9.926;2023-10-19T07:17:28;7.00;99.90
17954;DHT22;9102;53.548;9.926;2023-10-19T07:19:56;7.10;99.90
17954;DHT22;9102;53.548;9.926;2023-10-19T07:22:23;7.10;99.90
17954;DHT22;9102;53.548;9.926;2023-10-19T07:24:50;7.20;99.90
17954;DHT22;9102;53.548;9.926;2023-10-19T07:27:17;7.00;99.90
17954;DHT22;9102;53.548;9.926;2023-10-19T07:29:45;7.00;99.90
17954;DHT22;9102;53.548;9.926;2023-10-19T07:32:13;7.00;99.90
17954;DHT22;9102;53.548;9.926;2023-10-19T07:34:42;7.00;99.90
17954;DHT22;9102;53.548;9.926;2023-10-19T07:37:11;7.10;99.90
17954;DHT22;9102;53.548;9.926;2023-10-19T07:39:40;7.10;99.90
17954;DHT22;9102;53.548;9.926;2023-10-19T07:42:10;7.10;99.90
17954;DHT22;9102;53.548;9.926;2023-10-19T07:44:37;7.10;99.90
17954;DHT22;9102;53.548;9.926;2023-10-19T07:47:05;7.10;99.90
17954;DHT22;9102;53.548;9.926;2023-10-19T07:49:34;7.00;99.90
17954;DHT22;9102;53.548;9.926;2023-10-19T07:52:04;7.10;99.90
17954;DHT22;9102;53.548;9.926;2023-10-19T07:54:33;7.10;99.90
17954;DHT22;9102;53.548;9.926;2023-10-19T07:57:00;7.20;99.90
17954;DHT22;9102;53.548;9.926;2023-10-19T07:59:31;7.20;99.90
17954;DHT22;9102;53.548;9.926;2023-10-19T08:01:58;7.20;99.90
17954;DHT22;9102;53.548;9.926;2023-10-19T08:04:26;7.20;99.90
17954;DHT22;9102;53.548;9.926;2023-10-19T08:06:53;7.10;99.90
17954;DHT22;9102;53.548;9.926;2023-10-19T08:09:20;7.10;99.90
17954;DHT22;9102;53.548;9.926;2023-10-19T08:11:50;7.30;99.90
17954;DHT22;9102;53.548;9.926;2023-10-19T08:14:21;7.20;99.90
17954;DHT22;9102;53.548;9.926;2023-10-19T08:16:48;7.20;99.90
17954;DHT22;9102;53.548;9.926;2023-10-19T08:19:15;7.20;99.90
17954;DHT22;9102;53.548;9.926;2023-10-19T08:21:41;7.30;99.90
17954;DHT22;9102;53.548;9.926;2023-10-19T08:24:08;7.40;99.90
17954;DHT22;9102;53.548;9.926;2023-10-19T08:26:39;7.30;99.90
17954;DHT22;9102;53.548;9.926;2023-10-19T08:29:08;7.20;99.90
17954;DHT22;9102;53.548;9.926;2023-10-19T08:31:38;7.30;99.90
17954;DHT22;9102;53.548;9.926;2023-10-19T08:34:06;7.30;99.90
17954;DHT22;9102;53.548;9.926;2023-10-19T08:36:35;7.30;99.90
17954;DHT22;9102;53.548;9.926;2023-10-19T08:39:03;7.40;99.90
17954;DHT22;9102;53.548;9.926;2023-10-19T08:41:31;7.30;99.90
17954;DHT22;9102;53.548;9.926;2023-10-19T08:44:00;7.30;99.90
17954;DHT22;9102;53.548;9.926;2023-10-19T08:46:28;7.30;99.90
17954;DHT22;9102;53.548;9.926;2023-10-19T08:48:55;7.40;99.90
17954;DHT22;9102;53.548;9.926;2023-10-19T08:51:23;7.40;99.90
17954;DHT22;9102;53.548;9.926;2023-10-19T08:53:52;7.40;99.90
17954;DHT22;9102;53.548;9.926;2023-10-19T08:56:20;7.40;99.90
17954;DHT22;9102;53.548;9.926;2023-10-19T08:58:49;7.40;99.90
17954;DHT22;9102;53.548;9.926;2023-10-19T09:01:18;7.40;99.90
17954;DHT22;9102;53.548;9.926;2023-10-19T09:03:51;7.30;99.90
17954;DHT22;9102;53.548;9.926;2023-10-19T09:06:18;7.40;99.90
17954;DHT22;9102;53.548;9.926;2023-10-19T09:08:47;7.50;99.90
17954;DHT22;9102;53.548;9.926;2023-10-19T09:11:15;7.40;99.90
17954;DHT22;9102;53.548;9.926;2023-10-19T09:13:44;7.50;99.90
17954;DHT22;9102;53.548;9.926;2023-10-19T09:16:13;7.50;99.90
17954;DHT22;9102;53.548;9.926;2023-10-19T09:18:41;7.50;99.90
17954;DHT22;9102;53.548;9.926;2023-10-19T09:21:09;7.60;99.90
17954;DHT22;9102;53.548;9.926;2023-10-19T09:23:38;7.60;99.90
17954;DHT22;9102;53.548;9.926;2023-10-19T09:26:07;7.60;99.90
17954;DHT22;9102;53.548;9.926;2023-10-19T09:28:35;7.50;99.90
17954;DHT22;9102;53.548;9.926;2023-10-19T09:31:03;7.60;99.90
17954;DHT22;9102;53.548;9.926;2023-10-19T09:33:31;7.50;99.90
17954;DHT22;9102;53.548;9.926;2023-10-19T09:36:00;7.60;99.90
17954;DHT22;9102;53.548;9.926;2023-10-19T09:38:31;7.60;99.90
17954;DHT22;9102;53.548;9.926;2023-10-19T09:40:59;7.60;99.90
17954;DHT22;9102;53.548;9.926;2023-10-19T09:43:33;7.50;99.90
17954;DHT22;9102;53.548;9.926;2023-10-19T09:46:03;7.40;99.90
17954;DHT22;9102;53.548;9.926;2023-10-19T09:48:34;7.50;99.90
17954;DHT22;9102;53.548;9.926;2023-10-19T09:51:07;7.50;99.90
17954;DHT22;9102;53.548;9.926;2023-10-19T09:53:37;7.50;99.90
17954;DHT22;9102;53.548;9.926;2023-10-19T09:56:07;7.40;99.90
17954;DHT22;9102;53.548;9.926;2023-10-19T09:58:40;7.50;99.90
17954;DHT22;9102;53.548;9.926;2023-10-19T10:01:08;7.50;99.90
17954;DHT22;9102;53.548;9.926;2023-10-19T10:03:46;7.60;99.90
17954;DHT22;9102;53.548;9.926;2023-10-19T10:06:14;7.50;99.90
17954;DHT22;9102;53.548;9.926;2023-10-19T10:08:44;7.40;99.90
17954;DHT22;9102;53.548;9.926;2023-10-19T10:11:19;7.40;99.90
17954;DHT22;9102;53.548;9.926;2023-10-19T10:13:47;7.40;99.90
17954;DHT22;9102;53.548;9.926;2023-10-19T10:16:17;7.30;99.90
17954;DHT22;9102;53.548;9.926;2023-10-19T10:18:47;7.60;99.90
17954;DHT22;9102;53.548;9.926;2023-10-19T10:21:17;7.40;99.90
17954;DHT22;9102;53.548;9.926;2023-10-19T10:23:48;7.40;99.90
17954;DHT22;9102;53.548;9.926;2023-10-19T10:26:17;7.40;99.90
17954;DHT22;9102;53.548;9.926;2023-10-19T10:28:49;7.40;99.90
17954;DHT22;9102;53.548;9.926;2023-10-19T10:31:37;7.40;99.90
17954;DHT22;9102;53.548;9.926;2023-10-19T10:34:08;7.40;99.90
17954;DHT22;9102;53.548;9.926;2023-10-19T10:36:57;7.40;99.90
17954;DHT22;9102;53.548;9.926;2023-10-19T10:39:25;7.50;99.90
17954;DHT22;9102;53.548;9.926;2023-10-19T10:41:55;7.50;99.90
17954;DHT22;9102;53.548;9.926;2023-10-19T10:44:35;7.50;99.90
17954;DHT22;9102;53.548;9.926;2023-10-19T10:47:04;7.50;99.90
17954;DHT22;9102;53.548;9.926;2023-10-19T10:49:32;7.60;99.90
17954;DHT22;9102;53.548;9.926;2023-10-19T10:51:59;7.40;99.90
17954;DHT22;9102;53.548;9.926;2023-10-19T10:54:27;7.50;99.90
17954;DHT22;9102;53.548;9.926;2023-10-19T10:56:54;7.50;99.90
17954;DHT22;9102;53.548;9.926;2023-10-19T10:59:21;7.40;99.90
17954;DHT22;9102;53.548;9.926;2023-10-19T11:01:48;7.40;99.90
17954;DHT22;9102;53.548;9.926;2023-10-19T11:04:18;7.50;99.90
17954;DHT22;9102;53.548;9.926;2023-10-19T11:06:49;7.50;99.90
17954;DHT22;9102;53.548;9.926;2023-10-19T11:09:16;7.50;99.90
17954;DHT22;9102;53.548;9.926;2023-10-19T11:11:46;7.50;99.90
17954;DHT22;9102;53.548;9.926;2023-10-19T11:14:14;7.50;99.90
17954;DHT22;9102;53.548;9.926;2023-10-19T11:16:41;7.50;99.90
17954;DHT22;9102;53.548;9.926;2023-10-19T11:19:09;7.50;99.90
17954;DHT22;9102;53.548;9.926;2023-10-19T11:21:36;7.50;99.90
17954;DHT22;9102;53.548;9.926;2023-10-19T11:24:03;7.50;99.90
17954;DHT22;9102;53.548;9.926;2023-10-19T11:26:30;7.40;99.90
17954;DHT22;9102;53.548;9.926;2023-10-19T11:29:00;7.40;99.90
17954;DHT22;9102;53.548;9.926;2023-10-19T11:31:27;7.50;99.90
17954;DHT22;9102;53.548;9.926;2023-10-19T11:34:03;7.50;99.90
17954;DHT22;9102;53.548;9.926;2023-10-19T11:36:33;7.40;99.90
17954;DHT22;9102;53.548;9.926;2023-10-19T11:39:00;7.40;99.90
17954;DHT22;9102;53.548;9.926;2023-10-19T11:41:29;7.50;99.90
17954;DHT22;9102;53.548;9.926;2023-10-19T11:43:56;7.40;99.90
17954;DHT22;9102;53.548;9.926;2023-10-19T11:46:24;7.40;99.90
17954;DHT22;9102;53.548;9.926;2023-10-19T11:48:51;7.40;99.90
17954;DHT22;9102;53.548;9.926;2023-10-19T11:51:18;7.40;99.90
17954;DHT22;9102;53.548;9.926;2023-10-19T11:53:45;7.50;99.90
17954;DHT22;9102;53.548;9.926;2023-10-19T11:56:15;7.50;99.90
17954;DHT22;9102;53.548;9.926;2023-10-19T11:58:42;7.50;99.90
17954;DHT22;9102;53.548;9.926;2023-10-19T12:01:12;7.50;99.90
17954;DHT22;9102;53.548;9.926;2023-10-19T12:03:43;7.50;99.90
17954;DHT22;9102;53.548;9.926;2023-10-19T12:06:12;7.40;99.90
17954;DHT22;9102;53.548;9.926;2023-10-19T12:08:44;7.40;99.90
17954;DHT22;9102;53.548;9.926;2023-10-19T12:11:11;7.40;99.90
17954;DHT22;9102;53.548;9.926;2023-10-19T12:13:41;7.50;99.90
17954;DHT22;9102;53.548;9.926;2023-10-19T12:16:08;7.50;99.90
17954;DHT22;9102;53.548;9.926;2023-10-19T12:18:37;7.60;99.90
17954;DHT22;9102;53.548;9.926;2023-10-19T12:21:06;7.60;99.90
17954;DHT22;9102;53.548;9.926;2023-10-19T12:23:38;7.60;99.90
17954;DHT22;9102;53.548;9.926;2023-10-19T12:26:05;7.60;99.90
17954;DHT22;9102;53.548;9.926;2023-10-19T12:28:36;7.60;99.90
17954;DHT22;9102;53.548;9.926;2023-10-19T12:31:03;7.60;99.90
17954;DHT22;9102;53.548;9.926;2023-10-19T12:33:31;7.60;99.90
17954;DHT22;9102;53.548;9.926;2023-10-19T12:36:00;7.60;99.90
17954;DHT22;9102;53.548;9.926;2023-10-19T12:38:34;7.70;99.90
17954;DHT22;9102;53.548;9.926;2023-10-19T12:41:00;7.70;99.90
17954;DHT22;9102;53.548;9.926;2023-10-19T12:43:28;7.60;99.90
17954;DHT22;9102;53.548;9.926;2023-10-19T12:45:55;7.70;99.90
17954;DHT22;9102;53.548;9.926;2023-10-19T12:48:23;7.70;99.90
17954;DHT22;9102;53.548;9.926;2023-10-19T12:50:55;7.70;99.90
17954;DHT22;9102;53.548;9.926;2023-10-19T12:53:22;7.80;99.90
17954;DHT22;9102;53.548;9.926;2023-10-19T12:55:51;7.90;99.90
17954;DHT22;9102;53.548;9.926;2023-10-19T12:58:19;7.80;99.90
17954;DHT22;9102;53.548;9.926;2023-10-19T13:00:47;7.80;99.90
17954;DHT22;9102;53.548;9.926;2023-10-19T13:03:14;7.90;99.90
17954;DHT22;9102;53.548;9.926;2023-10-19T13:05:43;7.90;99.90
17954;DHT22;9102;53.548;9.926;2023-10-19T13:08:11;7.90;99.90
17954;DHT22;9102;53.548;9.926;2023-10-19T13:10:41;8.00;99.90
17954;DHT22;9102;53.548;9.926;2023-10-19T13:13:11;7.90;99.90
17954;DHT22;9102;53.548;9.926;2023-10-19T13:15:40;7.90;99.90
17954;DHT22;9102;53.548;9.926;2023-10-19T13:18:09;7.90;99.90
17954;DHT22;9102;53.548;9.926;2023-10-19T13:20:37;7.90;99.90
17954;DHT22;9102;53.548;9.926;2023-10-19T13:23:05;7.90;99.90
17954;DHT22;9102;53.548;9.926;2023-10-19T13:25:37;7.90;99.90
17954;DHT22;9102;53.548;9.926;2023-10-19T13:28:14;7.80;99.90
17954;DHT22;9102;53.548;9.926;2023-10-19T13:30:45;7.80;99.90
17954;DHT22;9102;53.548;9.926;2023-10-19T13:33:13;7.90;99.90
17954;DHT22;9102;53.548;9.926;2023-10-19T13:35:41;7.90;99.90
17954;DHT22;9102;53.548;9.926;2023-10-19T13:38:09;7.90;99.90
17954;DHT22;9102;53.548;9.926;2023-10-19T13:40:37;7.90;99.90
17954;DHT22;9102;53.548;9.926;2023-10-19T13:43:05;7.90;99.90
17954;DHT22;9102;53.548;9.926;2023-10-19T13:45:35;7.90;99.90
17954;DHT22;9102;53.548;9.926;2023-10-19T13:48:02;7.90;99.90
17954;DHT22;9102;53.548;9.926;2023-10-19T13:50:29;7.90;99.90
17954;DHT22;9102;53.548;9.926;2023-10-19T13:52:57;7.90;99.90
17954;DHT22;9102;53.548;9.926;2023-10-19T13:55:25;7.90;99.90
17954;DHT22;9102;53.548;9.926;2023-10-19T13:57:52;8.00;99.90
17954;DHT22;9102;53.548;9.926;2023-10-19T14:00:20;8.00;99.90
17954;DHT22;9102;53.548;9.926;2023-10-19T14:02:52;8.00;99.90
17954;DHT22;9102;53.548;9.926;2023-10-19T14:05:19;8.00;99.90
17954;DHT22;9102;53.548;9.926;2023-10-19T14:07:49;8.00;99.90
17954;DHT22;9102;53.548;9.926;2023-10-19T14:10:17;8.00;99.90
17954;DHT22;9102;53.548;9.926;2023-10-19T14:12:46;8.00;99.90
17954;DHT22;9102;53.548;9.926;2023-10-19T14:15:14;8.00;99.90
17954;DHT22;9102;53.548;9.926;2023-10-19T14:17:43;8.00;99.90
17954;DHT22;9102;53.548;9.926;2023-10-19T14:20:13;8.00;99.90
17954;DHT22;9102;53.548;9.926;2023-10-19T14:22:41;8.10;99.90
17954;DHT22;9102;53.548;9.926;2023-10-19T14:25:09;8.10;99.90
17954;DHT22;9102;53.548;9.926;2023-10-19T14:27:39;8.10;99.90
17954;DHT22;9102;53.548;9.926;2023-10-19T14:30:08;8.10;99.90
17954;DHT22;9102;53.548;9.926;2023-10-19T14:32:37;8.20;99.90
17954;DHT22;9102;53.548;9.926;2023-10-19T14:35:05;8.20;99.90
17954;DHT22;9102;53.548;9.926;2023-10-19T14:37:36;8.30;99.90
17954;DHT22;9102;53.548;9.926;2023-10-19T14:40:07;8.30;99.90
17954;DHT22;9102;53.548;9.926;2023-10-19T14:42:35;8.30;99.90
17954;DHT22;9102;53.548;9.926;2023-10-19T14:45:04;8.40;99.90
17954;DHT22;9102;53.548;9.926;2023-10-19T14:47:34;8.40;99.90
17954;DHT22;9102;53.548;9.926;2023-10-19T14:50:01;8.40;99.90
17954;DHT22;9102;53.548;9.926;2023-10-19T14:52:28;8.40;99.90
17954;DHT22;9102;53.548;9.926;2023-10-19T14:54:56;8.50;99.90
17954;DHT22;9102;53.548;9.926;2023-10-19T14:57:25;8.50;99.90
17954;DHT22;9102;53.548;9.926;2023-10-19T14:59:52;8.50;99.90
17954;DHT22;9102;53.548;9.926;2023-10-19T15:02:19;8.50;99.90
17954;DHT22;9102;53.548;9.926;2023-10-19T15:04:49;8.50;99.90
17954;DHT22;9102;53.548;9.926;2023-10-19T15:07:16;8.50;99.90
17954;DHT22;9102;53.548;9.926;2023-10-19T15:09:43;8.50;99.90
17954;DHT22;9102;53.548;9.926;2023-10-19T15:12:11;8.50;99.90
17954;DHT22;9102;53.548;9.926;2023-10-19T15:14:41;8.50;99.90
17954;DHT22;9102;53.548;9.926;2023-10-19T15:17:09;8.50;99.90
17954;DHT22;9102;53.548;9.926;2023-10-19T15:19:36;8.50;99.90
17954;DHT22;9102;53.548;9.926;2023-10-19T15:22:03;8.40;99.90
17954;DHT22;9102;53.548;9.926;2023-10-19T15:24:30;8.40;99.90
17954;DHT22;9102;53.548;9.926;2023-10-19T15:26:57;8.40;99.90
17954;DHT22;9102;53.548;9.926;2023-10-19T15:29:35;8.40;99.90
17954;DHT22;9102;53.548;9.926;2023-10-19T15:32:02;8.30;99.90
17954;DHT22;9102;53.548;9.926;2023-10-19T15:34:32;8.30;99.90
17954;DHT22;9102;53.548;9.926;2023-10-19T15:36:59;8.30;99.90
17954;DHT22;9102;53.548;9.926;2023-10-19T15:39:26;8.30;99.90
17954;DHT22;9102;53.548;9.926;2023-10-19T15:41:53;8.30;99.90
17954;DHT22;9102;53.548;9.926;2023-10-19T15:44:20;8.30;99.90
17954;DHT22;9102;53.548;9.926;2023-10-19T15:46:51;8.30;99.90
17954;DHT22;9102;53.548;9.926;2023-10-19T15:49:19;8.30;99.90
17954;DHT22;9102;53.548;9.926;2023-10-19T15:51:47;8.30;99.90
17954;DHT22;9102;53.548;9.926;2023-10-19T15:54:13;8.20;99.90
17954;DHT22;9102;53.548;9.926;2023-10-19T15:56:41;8.40;99.90
17954;DHT22;9102;53.548;9.926;2023-10-19T15:59:08;8.30;99.90
17954;DHT22;9102;53.548;9.926;2023-10-19T16:01:35;8.40;99.90
17954;DHT22;9102;53.548;9.926;2023-10-19T16:04:04;8.30;99.90
17954;DHT22;9102;53.548;9.926;2023-10-19T16:06:30;8.30;99.90
17954;DHT22;9102;53.548;9.926;2023-10-19T16:08:57;8.40;99.90
17954;DHT22;9102;53.548;9.926;2023-10-19T16:11:24;8.40;99.90
17954;DHT22;9102;53.548;9.926;2023-10-19T16:13:51;8.40;99.90